sensor_id;sensor_type;location;lat;lon;timestamp;P1;durP1;ratioP1;P2;durP2;ratioP2
22863;SDS011;11599;49.882;8.680;2023-03-14T00:00:00;2.47;;;0.73;;
22863;SDS011;11599;49.882;8.680;2023-03-14T00:10:27;1.73;;;0.73;;
22863;SDS011;11599;49.882;8.680;2023-03-14T00:20:48;2.60;;;0.60;;
22863;SDS011;11599;49.882;8.680;2023-03-14T00:31:12;5.50;;;0.60;;
22863;SDS011;11599;49.882;8.680;2023-03-14T00:41:35;3.40;;;0.73;;
22863;SDS011;11599;49.882;8.680;2023-03-14T00:51:57;2.13;;;0.87;;
22863;SDS011;11599;49.882;8.680;2023-03-14T01:02:19;1.87;;;0.53;;
22863;SDS011;11599;49.882;8.680;2023-03-14T01:12:44;4.43;;;0.83;;
22863;SDS011;11599;49.882;8.680;2023-03-14T01:23:06;2.77;;;0.60;;
22863;SDS011;11599;49.882;8.680;2023-03-14T01:33:29;1.50;;;0.70;;
22863;SDS011;11599;49.882;8.680;2023-03-14T01:43:51;2.00;;;0.60;;
22863;SDS011;11599;49.882;8.680;2023-03-14T01:54:16;1.80;;;0.70;;
22863;SDS011;11599;49.882;8.680;2023-03-14T02:04:41;3.33;;;0.80;;
22863;SDS011;11599;49.882;8.680;2023-03-14T02:15:06;3.60;;;0.97;;
22863;SDS011;11599;49.882;8.680;2023-03-14T02:25:53;2.87;;;0.70;;
22863;SDS011;11599;49.882;8.680;2023-03-14T02:36:17;1.63;;;0.70;;
22863;SDS011;11599;49.882;8.680;2023-03-14T02:46:39;3.83;;;0.83;;
22863;SDS011;11599;49.882;8.680;2023-03-14T02:57:03;2.70;;;0.80;;
22863;SDS011;11599;49.882;8.680;2023-03-14T03:07:25;6.00;;;1.00;;
22863;SDS011;11599;49.882;8.680;2023-03-14T03:17:50;1.00;;;0.60;;
22863;SDS011;11599;49.882;8.680;2023-03-14T03:28:11;2.53;;;0.67;;
22863;SDS011;11599;49.882;8.680;2023-03-14T03:38:35;5.67;;;0.83;;
22863;SDS011;11599;49.882;8.680;2023-03-14T03:48:58;6.53;;;0.90;;
22863;SDS011;11599;49.882;8.680;2023-03-14T03:59:23;3.10;;;0.70;;
22863;SDS011;11599;49.882;8.680;2023-03-14T04:09:45;2.20;;;0.73;;
22863;SDS011;11599;49.882;8.680;2023-03-14T04:20:27;5.67;;;0.97;;
22863;SDS011;11599;49.882;8.680;2023-03-14T04:30:49;5.10;;;0.90;;
22863;SDS011;11599;49.882;8.680;2023-03-14T04:41:16;1.30;;;0.70;;
22863;SDS011;11599;49.882;8.680;2023-03-14T04:51:38;5.20;;;0.77;;
22863;SDS011;11599;49.882;8.680;2023-03-14T05:02:01;3.70;;;0.90;;
22863;SDS011;11599;49.882;8.680;2023-03-14T05:12:37;3.77;;;0.87;;
22863;SDS011;11599;49.882;8.680;2023-03-14T05:23:15;4.43;;;1.63;;
22863;SDS011;11599;49.882;8.680;2023-03-14T05:34:05;2.53;;;0.70;;
22863;SDS011;11599;49.882;8.680;2023-03-14T05:44:47;6.47;;;0.83;;
22863;SDS011;11599;49.882;8.680;2023-03-14T05:55:38;4.03;;;0.73;;
22863;SDS011;11599;49.882;8.680;2023-03-14T06:06:14;5.27;;;0.80;;
22863;SDS011;11599;49.882;8.680;2023-03-14T06:16:39;2.67;;;0.80;;
22863;SDS011;11599;49.882;8.680;2023-03-14T06:27:04;3.00;;;0.80;;
22863;SDS011;11599;49.882;8.680;2023-03-14T06:37:26;3.83;;;0.60;;
22863;SDS011;11599;49.882;8.680;2023-03-14T06:47:49;3.10;;;0.83;;
22863;SDS011;11599;49.882;8.680;2023-03-14T06:58:14;4.20;;;0.80;;
22863;SDS011;11599;49.882;8.680;2023-03-14T07:08:40;2.33;;;0.50;;
22863;SDS011;11599;49.882;8.680;2023-03-14T07:19:02;2.73;;;0.57;;
22863;SDS011;11599;49.882;8.680;2023-03-14T07:29:26;1.30;;;0.40;;
22863;SDS011;11599;49.882;8.680;2023-03-14T07:39:51;3.57;;;0.60;;
22863;SDS011;11599;49.882;8.680;2023-03-14T07:50:19;4.13;;;0.60;;
22863;SDS011;11599;49.882;8.680;2023-03-14T08:00:40;1.70;;;0.50;;
22863;SDS011;11599;49.882;8.680;2023-03-14T08:11:09;2.10;;;0.40;;
22863;SDS011;11599;49.882;8.680;2023-03-14T08:21:46;1.83;;;0.40;;
22863;SDS011;11599;49.882;8.680;2023-03-14T10:46:55;0.73;;;0.10;;
22863;SDS011;11599;49.882;8.680;2023-03-14T10:57:39;0.17;;;0.13;;
22863;SDS011;11599;49.882;8.680;2023-03-14T11:29:16;1.03;;;0.20;;
22863;SDS011;11599;49.882;8.680;2023-03-14T11:39:41;0.30;;;0.20;;
22863;SDS011;11599;49.882;8.680;2023-03-14T11:50:06;0.97;;;0.30;;
22863;SDS011;11599;49.882;8.680;2023-03-14T12:00:29;0.97;;;0.20;;
22863;SDS011;11599;49.882;8.680;2023-03-14T12:10:53;0.97;;;0.40;;
22863;SDS011;11599;49.882;8.680;2023-03-14T12:21:34;1.57;;;0.80;;
22863;SDS011;11599;49.882;8.680;2023-03-14T12:32:09;0.77;;;0.33;;
22863;SDS011;11599;49.882;8.680;2023-03-14T12:42:45;4.50;;;1.50;;
22863;SDS011;11599;49.882;8.680;2023-03-14T13:03:54;2.33;;;0.60;;
22863;SDS011;11599;49.882;8.680;2023-03-14T13:14:16;0.50;;;0.40;;
22863;SDS011;11599;49.882;8.680;2023-03-14T13:24:41;0.33;;;0.20;;
22863;SDS011;11599;49.882;8.680;2023-03-14T13:35:02;2.40;;;0.30;;
22863;SDS011;11599;49.882;8.680;2023-03-14T13:45:26;0.40;;;0.37;;
22863;SDS011;11599;49.882;8.680;2023-03-14T13:55:47;0.80;;;0.50;;
22863;SDS011;11599;49.882;8.680;2023-03-14T14:06:19;2.40;;;0.70;;
22863;SDS011;11599;49.882;8.680;2023-03-14T14:16:43;0.83;;;0.70;;
22863;SDS011;11599;49.882;8.680;2023-03-14T14:27:11;1.00;;;0.60;;
22863;SDS011;11599;49.882;8.680;2023-03-14T14:37:34;1.60;;;0.50;;
22863;SDS011;11599;49.882;8.680;2023-03-14T14:48:06;0.47;;;0.40;;
22863;SDS011;11599;49.882;8.680;2023-03-14T14:58:29;1.30;;;0.90;;
22863;SDS011;11599;49.882;8.680;2023-03-14T15:08:52;1.37;;;0.80;;
22863;SDS011;11599;49.882;8.680;2023-03-14T15:19:19;1.40;;;0.80;;
22863;SDS011;11599;49.882;8.680;2023-03-14T15:29:43;4.37;;;0.80;;
22863;SDS011;11599;49.882;8.680;2023-03-14T15:40:05;0.50;;;0.40;;
22863;SDS011;11599;49.882;8.680;2023-03-14T15:50:33;2.97;;;0.50;;
22863;SDS011;11599;49.882;8.680;2023-03-14T16:00:54;4.50;;;1.10;;
22863;SDS011;11599;49.882;8.680;2023-03-14T16:11:17;1.03;;;0.50;;
22863;SDS011;11599;49.882;8.680;2023-03-14T16:21:39;2.73;;;0.90;;
22863;SDS011;11599;49.882;8.680;2023-03-14T16:32:04;1.53;;;0.60;;
22863;SDS011;11599;49.882;8.680;2023-03-14T16:42:26;2.87;;;0.70;;
22863;SDS011;11599;49.882;8.680;2023-03-14T16:52:48;0.80;;;0.60;;
22863;SDS011;11599;49.882;8.680;2023-03-14T17:03:10;1.03;;;0.53;;
22863;SDS011;11599;49.882;8.680;2023-03-14T17:13:33;3.70;;;1.30;;
22863;SDS011;11599;49.882;8.680;2023-03-14T17:23:54;1.37;;;0.60;;
22863;SDS011;11599;49.882;8.680;2023-03-14T17:34:17;4.83;;;1.10;;
22863;SDS011;11599;49.882;8.680;2023-03-14T17:44:39;1.73;;;0.50;;
22863;SDS011;11599;49.882;8.680;2023-03-14T17:55:02;0.30;;;0.30;;
22863;SDS011;11599;49.882;8.680;2023-03-14T18:05:24;0.63;;;0.40;;
22863;SDS011;11599;49.882;8.680;2023-03-14T18:15:47;0.60;;;0.30;;
22863;SDS011;11599;49.882;8.680;2023-03-14T18:26:08;0.93;;;0.50;;
22863;SDS011;11599;49.882;8.680;2023-03-14T18:36:31;1.10;;;0.40;;
22863;SDS011;11599;49.882;8.680;2023-03-14T18:46:53;1.57;;;0.70;;
22863;SDS011;11599;49.882;8.680;2023-03-14T18:57:16;2.40;;;0.83;;
22863;SDS011;11599;49.882;8.680;2023-03-14T19:07:40;5.37;;;0.83;;
22863;SDS011;11599;49.882;8.680;2023-03-14T19:18:03;2.77;;;1.20;;
22863;SDS011;11599;49.882;8.680;2023-03-14T19:28:28;10.70;;;2.93;;
22863;SDS011;11599;49.882;8.680;2023-03-14T19:38:59;7.70;;;2.97;;
22863;SDS011;11599;49.882;8.680;2023-03-14T19:49:28;17.10;;;3.23;;
22863;SDS011;11599;49.882;8.680;2023-03-14T20:00:00;7.23;;;2.40;;
22863;SDS011;11599;49.882;8.680;2023-03-14T20:10:34;11.73;;;2.70;;
22863;SDS011;11599;49.882;8.680;2023-03-14T20:20:57;2.50;;;1.50;;
22863;SDS011;11599;49.882;8.680;2023-03-14T20:31:18;16.10;;;2.23;;
22863;SDS011;11599;49.882;8.680;2023-03-14T20:41:41;10.63;;;1.87;;
22863;SDS011;11599;49.882;8.680;2023-03-14T20:52:02;4.30;;;1.40;;
22863;SDS011;11599;49.882;8.680;2023-03-14T21:02:25;8.27;;;1.67;;
22863;SDS011;11599;49.882;8.680;2023-03-14T21:12:47;4.70;;;1.40;;
22863;SDS011;11599;49.882;8.680;2023-03-14T21:23:10;7.80;;;1.70;;
22863;SDS011;11599;49.882;8.680;2023-03-14T21:33:32;6.00;;;1.50;;
22863;SDS011;11599;49.882;8.680;2023-03-14T21:43:55;4.87;;;1.23;;
22863;SDS011;11599;49.882;8.680;2023-03-14T21:54:16;2.33;;;0.90;;
22863;SDS011;11599;49.882;8.680;2023-03-14T22:04:42;5.33;;;0.97;;
22863;SDS011;11599;49.882;8.680;2023-03-14T22:15:04;5.70;;;1.07;;
22863;SDS011;11599;49.882;8.680;2023-03-14T22:25:27;4.90;;;1.37;;
22863;SDS011;11599;49.882;8.680;2023-03-14T22:35:48;4.00;;;1.07;;
22863;SDS011;11599;49.882;8.680;2023-03-14T22:46:12;4.23;;;1.60;;
22863;SDS011;11599;49.882;8.680;2023-03-14T22:56:33;6.40;;;1.40;;
22863;SDS011;11599;49.882;8.680;2023-03-14T23:06:56;5.17;;;1.40;;
22863;SDS011;11599;49.882;8.680;2023-03-14T23:17:17;3.17;;;1.20;;
22863;SDS011;11599;49.882;8.680;2023-03-14T23:27:40;7.83;;;1.60;;
22863;SDS011;11599;49.882;8.680;2023-03-14T23:38:05;4.77;;;1.60;;
22863;SDS011;11599;49.882;8.680;2023-03-14T23:48:28;6.10;;;1.70;;
22863;SDS011;11599;49.882;8.680;2023-03-14T23:58:52;7.27;;;1.60;;
